createdAt,value
2018-07-23T00:00:39.830Z,5.17
2018-07-23T00:03:09.471Z,4.90
2018-07-23T00:05:39.106Z,4.70
2018-07-23T00:08:08.770Z,4.33
2018-07-23T00:10:38.400Z,5.10
2018-07-23T00:13:08.026Z,5.20
2018-07-23T00:15:37.606Z,4.90
2018-07-23T00:18:07.220Z,5.57
2018-07-23T00:20:36.870Z,5.47
2018-07-23T00:23:06.474Z,4.97
2018-07-23T00:25:36.124Z,4.60
2018-07-23T00:28:05.751Z,4.97
2018-07-23T00:30:35.373Z,6.03
2018-07-23T00:33:05.024Z,4.53
2018-07-23T00:35:34.660Z,4.87
2018-07-23T00:38:04.281Z,5.07
2018-07-23T00:40:33.969Z,4.20
2018-07-23T00:43:03.581Z,4.40
2018-07-23T00:45:33.184Z,4.73
2018-07-23T00:48:02.780Z,5.50
2018-07-23T00:50:32.443Z,4.10
2018-07-23T00:53:02.084Z,4.57
2018-07-23T00:55:31.743Z,4.40
2018-07-23T00:58:21.110Z,4.30
2018-07-23T01:00:50.747Z,4.83
2018-07-23T01:03:20.390Z,4.77
2018-07-23T01:05:50.023Z,4.13
2018-07-23T01:08:19.634Z,4.03
2018-07-23T01:10:49.196Z,4.30
2018-07-23T01:13:18.819Z,4.00
2018-07-23T01:15:48.470Z,3.83
2018-07-23T01:18:18.184Z,3.83
2018-07-23T01:20:47.848Z,3.40
2018-07-23T01:23:17.432Z,3.50
2018-07-23T01:25:47.101Z,4.30
2018-07-23T01:28:16.698Z,3.60
2018-07-23T01:30:46.345Z,4.00
2018-07-23T01:33:15.963Z,3.67
2018-07-23T01:35:45.601Z,3.63
2018-07-23T01:38:15.197Z,3.90
2018-07-23T01:40:44.827Z,3.27
2018-07-23T01:43:14.465Z,3.23
2018-07-23T01:45:44.086Z,3.60
2018-07-23T01:48:13.687Z,3.13
2018-07-23T01:50:43.297Z,3.40
2018-07-23T01:53:13.045Z,3.20
2018-07-23T01:55:42.682Z,3.50
2018-07-23T01:58:12.358Z,3.10
2018-07-23T02:00:42.013Z,2.53
2018-07-23T02:03:11.612Z,2.57
2018-07-23T02:05:41.247Z,2.97
2018-07-23T02:08:10.853Z,3.10
2018-07-23T02:10:40.458Z,2.93
2018-07-23T02:13:10.069Z,2.90
2018-07-23T02:15:39.655Z,2.50
2018-07-23T02:18:09.411Z,2.13
2018-07-23T02:20:39.055Z,2.10
2018-07-23T02:23:08.695Z,3.20
2018-07-23T02:25:38.373Z,2.37
2018-07-23T02:28:08.061Z,2.30
2018-07-23T02:30:37.705Z,2.47
2018-07-23T02:33:07.588Z,2.43
2018-07-23T02:35:37.655Z,3.90
2018-07-23T02:38:07.966Z,2.50
2018-07-23T02:40:37.569Z,2.60
2018-07-23T02:43:07.359Z,2.03
2018-07-23T02:45:36.979Z,2.47
2018-07-23T02:48:06.584Z,2.70
2018-07-23T02:50:36.169Z,1.97
2018-07-23T02:53:05.830Z,2.50
2018-07-23T02:55:35.479Z,2.63
2018-07-23T02:58:05.155Z,2.60
2018-07-23T03:00:34.768Z,2.33
2018-07-23T03:03:04.466Z,2.60
2018-07-23T03:05:34.168Z,2.10
2018-07-23T03:08:03.814Z,2.40
2018-07-23T03:10:33.371Z,2.00
2018-07-23T03:13:02.979Z,2.60
2018-07-23T03:15:32.657Z,2.23
2018-07-23T03:18:02.280Z,2.17
2018-07-23T03:20:32.228Z,2.57
2018-07-23T03:23:01.904Z,2.07
2018-07-23T03:25:31.527Z,2.37
2018-07-23T03:28:01.187Z,2.73
2018-07-23T03:30:30.824Z,2.23
2018-07-23T03:33:00.455Z,2.50
2018-07-23T03:35:30.096Z,2.60
2018-07-23T03:37:59.693Z,3.47
2018-07-23T03:40:29.296Z,2.23
2018-07-23T03:42:58.926Z,2.77
2018-07-23T03:45:27.879Z,2.50
2018-07-23T03:47:57.471Z,2.77
2018-07-23T03:50:27.085Z,2.97
2018-07-23T03:52:56.742Z,2.90
2018-07-23T03:55:26.373Z,3.37
2018-07-23T03:57:55.955Z,3.13
2018-07-23T04:00:25.668Z,3.13
2018-07-23T04:02:55.304Z,3.37
2018-07-23T04:05:24.953Z,3.50
2018-07-23T04:07:54.547Z,5.40
2018-07-23T04:10:24.174Z,4.80
2018-07-23T04:12:53.843Z,4.13
2018-07-23T04:15:23.553Z,3.90
2018-07-23T04:18:01.152Z,3.97
2018-07-23T04:20:31.272Z,3.93
2018-07-23T04:23:00.851Z,4.23
2018-07-23T04:25:30.798Z,3.20
2018-07-23T04:28:00.703Z,4.50
2018-07-23T04:30:30.357Z,4.70
2018-07-23T04:32:59.974Z,3.70
2018-07-23T04:35:29.726Z,4.07
2018-07-23T04:37:59.418Z,3.67
2018-07-23T04:40:29.081Z,3.40
2018-07-23T04:42:58.682Z,3.87
2018-07-23T04:45:28.312Z,4.07
2018-07-23T04:47:57.897Z,3.27
2018-07-23T04:50:27.538Z,3.73
2018-07-23T04:52:57.237Z,3.90
2018-07-23T04:55:26.277Z,4.40
2018-07-23T04:57:55.889Z,4.90
2018-07-23T05:00:25.493Z,5.03
2018-07-23T05:02:55.142Z,6.10
2018-07-23T05:05:24.716Z,5.93
2018-07-23T05:07:54.339Z,4.37
2018-07-23T05:10:23.951Z,5.97
2018-07-23T05:12:53.688Z,5.57
2018-07-23T05:15:23.338Z,6.67
2018-07-23T05:17:53.004Z,5.90
2018-07-23T05:20:22.616Z,5.43
2018-07-23T05:22:52.254Z,6.17
2018-07-23T05:25:21.845Z,5.10
2018-07-23T05:27:51.474Z,5.90
2018-07-23T05:30:21.139Z,5.80
2018-07-23T05:32:50.784Z,5.33
2018-07-23T05:35:20.397Z,4.60
2018-07-23T05:37:50.021Z,5.23
2018-07-23T05:40:19.648Z,4.83
2018-07-23T05:42:49.288Z,4.70
2018-07-23T05:45:18.929Z,4.53
2018-07-23T05:47:48.543Z,5.10
2018-07-23T05:50:18.201Z,5.53
2018-07-23T05:52:47.824Z,4.73
2018-07-23T05:55:17.443Z,6.07
2018-07-23T05:57:47.138Z,4.87
2018-07-23T06:00:16.760Z,4.50
2018-07-23T06:02:46.397Z,5.47
2018-07-23T06:05:16.104Z,5.20
2018-07-23T06:07:45.724Z,5.20
2018-07-23T06:10:15.365Z,4.73
2018-07-23T06:12:44.994Z,6.80
2018-07-23T06:15:14.657Z,5.90
2018-07-23T06:17:44.304Z,5.17
2018-07-23T06:20:13.925Z,4.50
2018-07-23T06:22:43.864Z,5.17
2018-07-23T06:25:13.491Z,5.40
2018-07-23T06:27:43.146Z,5.37
2018-07-23T06:30:12.886Z,5.60
2018-07-23T06:32:42.505Z,5.90
2018-07-23T06:35:12.148Z,5.30
2018-07-23T06:37:41.793Z,5.63
2018-07-23T06:40:11.532Z,4.70
2018-07-23T06:42:41.175Z,4.90
2018-07-23T06:45:10.853Z,5.63
2018-07-23T06:47:40.476Z,5.73
2018-07-23T06:50:10.129Z,5.97
2018-07-23T06:52:39.722Z,5.17
2018-07-23T06:55:09.317Z,5.77
2018-07-23T06:57:38.989Z,4.97
2018-07-23T07:00:08.632Z,5.67
2018-07-23T07:02:38.289Z,5.00
2018-07-23T07:05:07.981Z,5.13
2018-07-23T07:07:37.596Z,6.23
2018-07-23T07:10:07.788Z,5.00
2018-07-23T07:12:37.430Z,4.83
2018-07-23T07:15:07.559Z,5.43
2018-07-23T07:17:37.185Z,4.37
2018-07-23T07:20:06.819Z,4.53
2018-07-23T07:22:36.612Z,4.80
2018-07-23T07:25:06.249Z,5.10
2018-07-23T07:27:35.874Z,4.90
2018-07-23T07:30:06.720Z,4.80
2018-07-23T07:32:36.318Z,5.07
2018-07-23T07:35:06.053Z,5.10
2018-07-23T07:37:35.753Z,4.50
2018-07-23T07:40:05.535Z,4.93
2018-07-23T07:42:35.142Z,3.90
2018-07-23T07:45:05.393Z,4.60
2018-07-23T07:47:34.996Z,4.27
2018-07-23T07:50:04.782Z,4.97
2018-07-23T07:52:34.365Z,4.17
2018-07-23T07:55:04.012Z,4.27
2018-07-23T07:57:33.649Z,4.10
2018-07-23T08:00:03.255Z,4.10
2018-07-23T08:02:32.886Z,4.10
2018-07-23T08:05:02.567Z,3.80
2018-07-23T08:07:32.178Z,3.93
2018-07-23T08:10:01.800Z,4.03
2018-07-23T08:12:31.415Z,4.37
2018-07-23T08:15:01.057Z,4.47
2018-07-23T08:17:30.647Z,4.00
2018-07-23T08:20:00.287Z,4.00
2018-07-23T08:22:29.915Z,4.23
2018-07-23T08:24:59.608Z,3.67
2018-07-23T08:27:29.219Z,4.47
2018-07-23T08:29:58.854Z,4.40
2018-07-23T08:32:28.487Z,4.70
2018-07-23T08:34:58.195Z,4.00
2018-07-23T08:37:27.789Z,4.03
2018-07-23T08:39:57.387Z,3.80
2018-07-23T08:42:27.083Z,3.80
2018-07-23T08:44:56.733Z,4.00
2018-07-23T08:47:26.357Z,4.10
2018-07-23T08:49:55.995Z,3.60
2018-07-23T08:52:25.628Z,3.87
2018-07-23T08:54:55.262Z,4.50
2018-07-23T08:57:24.958Z,3.83
2018-07-23T08:59:55.432Z,4.17
2018-07-23T09:02:25.978Z,4.17
2018-07-23T09:04:58.519Z,3.73
2018-07-23T09:07:28.101Z,3.70
2018-07-23T09:09:57.763Z,4.27
2018-07-23T09:12:27.397Z,3.97
2018-07-23T09:14:57.015Z,3.80
2018-07-23T09:17:26.670Z,4.30
2018-07-23T09:19:56.361Z,3.70
2018-07-23T09:22:25.969Z,4.13
2018-07-23T09:24:55.645Z,4.10
2018-07-23T09:27:25.228Z,4.30
2018-07-23T09:29:54.868Z,4.03
2018-07-23T09:32:24.494Z,4.40
2018-07-23T09:34:54.142Z,4.30
2018-07-23T09:37:24.329Z,4.10
2018-07-23T09:39:54.850Z,5.20
2018-07-23T09:42:24.624Z,4.53
2018-07-23T09:44:54.255Z,4.63
2018-07-23T09:47:23.860Z,4.17
2018-07-23T09:49:53.482Z,4.60
2018-07-23T09:52:23.124Z,4.50
2018-07-23T09:54:52.754Z,3.97
2018-07-23T09:57:22.380Z,4.93
2018-07-23T09:59:51.950Z,4.20
2018-07-23T10:02:21.583Z,4.40
2018-07-23T10:04:51.228Z,3.97
2018-07-23T10:07:20.853Z,4.30
2018-07-23T10:09:50.491Z,4.27
2018-07-23T10:12:20.119Z,3.57
2018-07-23T10:14:49.737Z,4.97
2018-07-23T10:17:19.384Z,4.30
2018-07-23T10:19:48.956Z,4.53
2018-07-23T10:22:18.610Z,5.40
2018-07-23T10:24:48.278Z,5.00
2018-07-23T10:27:17.914Z,4.43
2018-07-23T10:29:47.526Z,4.30
2018-07-23T10:32:17.156Z,4.30
2018-07-23T10:34:46.811Z,5.03
2018-07-23T10:37:16.426Z,4.57
2018-07-23T10:39:46.021Z,4.97
2018-07-23T10:42:15.632Z,4.50
2018-07-23T10:44:45.287Z,5.57
2018-07-23T10:47:14.994Z,4.47
2018-07-23T10:49:44.609Z,5.00
2018-07-23T10:52:14.240Z,5.13
2018-07-23T10:54:43.941Z,5.07
2018-07-23T10:57:13.813Z,4.40
2018-07-23T10:59:43.462Z,4.80
2018-07-23T11:02:13.101Z,4.90
2018-07-23T11:04:42.717Z,5.27
2018-07-23T11:07:12.320Z,4.30
2018-07-23T11:09:41.926Z,4.83
2018-07-23T11:12:11.580Z,5.87
2018-07-23T11:14:41.197Z,4.73
2018-07-23T11:17:10.807Z,4.67
2018-07-23T11:19:40.432Z,4.57
2018-07-23T11:22:10.057Z,5.00
2018-07-23T11:24:45.443Z,4.87
2018-07-23T11:27:09.415Z,4.63
2018-07-23T11:29:39.035Z,5.13
2018-07-23T11:32:08.763Z,5.60
2018-07-23T11:34:38.430Z,5.00
2018-07-23T11:37:08.090Z,4.73
2018-07-23T11:39:37.695Z,4.70
2018-07-23T11:42:07.481Z,4.80
2018-07-23T11:44:37.176Z,5.33
2018-07-23T11:47:06.940Z,4.73
2018-07-23T11:49:36.530Z,4.50
2018-07-23T11:52:06.185Z,4.77
2018-07-23T11:54:35.721Z,4.90
2018-07-23T11:57:05.512Z,5.00
2018-07-23T11:59:35.097Z,5.00
2018-07-23T12:02:04.742Z,4.57
2018-07-23T12:04:34.451Z,5.03
2018-07-23T12:07:04.055Z,4.30
2018-07-23T12:09:33.610Z,3.80
2018-07-23T12:12:03.242Z,4.33
2018-07-23T12:14:32.895Z,4.37
2018-07-23T12:17:02.526Z,4.17
2018-07-23T12:19:32.149Z,5.07
2018-07-23T12:22:01.842Z,4.27
2018-07-23T12:24:31.481Z,4.57
2018-07-23T12:27:01.085Z,3.57
2018-07-23T12:29:30.696Z,3.60
2018-07-23T12:32:00.321Z,3.27
2018-07-23T12:34:29.914Z,4.20
2018-07-23T12:36:59.536Z,4.13
2018-07-23T12:39:29.149Z,3.63
2018-07-23T12:41:58.761Z,5.53
2018-07-23T12:44:28.346Z,3.97
2018-07-23T12:46:58.021Z,3.57
2018-07-23T12:49:27.651Z,4.03
2018-07-23T12:51:57.300Z,3.77
2018-07-23T12:54:26.916Z,3.27
2018-07-23T12:56:56.542Z,3.67
2018-07-23T12:59:25.587Z,3.10
2018-07-23T13:01:55.135Z,3.53
2018-07-23T13:04:24.803Z,3.57
2018-07-23T13:06:54.413Z,3.40
2018-07-23T13:09:24.042Z,4.37
2018-07-23T13:11:53.654Z,4.43
2018-07-23T13:14:23.261Z,3.73
2018-07-23T13:16:52.893Z,4.00
2018-07-23T13:19:22.534Z,4.10
2018-07-23T13:21:52.193Z,3.70
2018-07-23T13:24:21.197Z,4.50
2018-07-23T13:26:50.781Z,3.60
2018-07-23T13:29:20.407Z,3.70
2018-07-23T13:31:49.980Z,3.93
2018-07-23T13:34:19.611Z,3.30
2018-07-23T13:36:49.322Z,4.20
2018-07-23T13:39:18.973Z,4.03
2018-07-23T13:41:48.569Z,4.03
2018-07-23T13:44:18.219Z,4.17
2018-07-23T13:46:47.893Z,3.37
2018-07-23T13:49:17.539Z,3.77
2018-07-23T13:51:47.175Z,3.80
2018-07-23T13:54:16.832Z,4.10
2018-07-23T13:56:46.469Z,3.47
2018-07-23T13:59:16.079Z,4.20
2018-07-23T14:01:45.702Z,3.83
2018-07-23T14:04:15.385Z,3.43
2018-07-23T14:06:44.984Z,3.70
2018-07-23T14:09:14.607Z,3.80
2018-07-23T14:11:45.200Z,4.07
2018-07-23T14:14:14.829Z,3.90
2018-07-23T14:16:44.528Z,3.90
2018-07-23T14:19:14.207Z,3.57
2018-07-23T14:21:43.856Z,3.50
2018-07-23T14:24:13.516Z,3.40
2018-07-23T14:26:43.110Z,3.70
2018-07-23T14:29:12.706Z,3.80
2018-07-23T14:31:42.365Z,4.70
2018-07-23T14:34:11.977Z,4.50
2018-07-23T14:36:41.662Z,3.40
2018-07-23T14:39:13.588Z,4.63
2018-07-23T14:41:43.254Z,4.20
2018-07-23T14:44:12.855Z,4.10
2018-07-23T14:46:42.470Z,4.00
2018-07-23T14:49:12.059Z,3.70
2018-07-23T14:51:41.700Z,3.93
2018-07-23T14:54:11.338Z,3.47
2018-07-23T14:56:40.978Z,3.50
2018-07-23T14:59:10.640Z,4.77
2018-07-23T15:01:40.313Z,4.73
2018-07-23T15:04:09.949Z,4.27
2018-07-23T15:06:39.591Z,3.87
2018-07-23T15:09:10.497Z,4.27
2018-07-23T15:11:40.165Z,4.20
2018-07-23T15:14:09.825Z,4.10
2018-07-23T15:16:39.391Z,4.40
2018-07-23T15:19:09.048Z,3.80
2018-07-23T15:21:38.702Z,3.90
2018-07-23T15:24:08.310Z,3.90
2018-07-23T15:26:37.953Z,4.57
2018-07-23T15:29:07.642Z,3.23
2018-07-23T15:31:37.251Z,3.80
2018-07-23T15:34:06.880Z,4.30
2018-07-23T15:36:36.513Z,3.97
2018-07-23T15:39:08.672Z,4.37
2018-07-23T15:41:38.390Z,3.83
2018-07-23T15:44:08.206Z,4.47
2018-07-23T15:46:37.897Z,4.63
2018-07-23T15:49:07.609Z,4.27
2018-07-23T15:51:37.183Z,4.53
2018-07-23T15:54:06.947Z,4.27
2018-07-23T15:56:36.674Z,3.90
2018-07-23T15:59:06.497Z,4.50
2018-07-23T16:01:36.191Z,4.43
2018-07-23T16:04:05.853Z,3.60
2018-07-23T16:06:35.410Z,3.60
2018-07-23T16:09:07.801Z,4.13
2018-07-23T16:11:37.439Z,3.77
2018-07-23T16:14:07.044Z,3.70
2018-07-23T16:16:36.680Z,4.40
2018-07-23T16:19:06.517Z,3.30
2018-07-23T16:21:36.218Z,3.70
2018-07-23T16:24:05.941Z,3.53
2018-07-23T16:26:35.727Z,3.67
2018-07-23T16:29:05.477Z,4.63
2018-07-23T16:31:35.115Z,3.63
2018-07-23T16:34:04.759Z,3.40
2018-07-23T16:36:34.399Z,5.13
2018-07-23T16:39:04.907Z,4.13
2018-07-23T16:41:33.941Z,4.00
2018-07-23T16:44:03.684Z,3.77
2018-07-23T16:46:33.362Z,3.80
2018-07-23T16:49:03.040Z,3.97
2018-07-23T16:51:32.717Z,3.70
2018-07-23T16:54:02.621Z,3.80
2018-07-23T16:56:32.248Z,3.23
2018-07-23T16:59:01.922Z,4.43
2018-07-23T17:01:31.573Z,4.17
2018-07-23T17:04:00.622Z,3.67
2018-07-23T17:06:30.253Z,4.00
2018-07-23T17:08:59.900Z,4.00
2018-07-23T17:11:29.534Z,3.63
2018-07-23T17:13:59.160Z,3.70
2018-07-23T17:16:28.762Z,4.27
2018-07-23T17:18:58.377Z,3.90
2018-07-23T17:21:28.045Z,3.80
2018-07-23T17:23:57.689Z,3.30
2018-07-23T17:26:27.492Z,3.87
2018-07-23T17:28:57.237Z,4.47
2018-07-23T17:31:26.970Z,3.83
2018-07-23T17:33:56.672Z,3.80
2018-07-23T17:36:26.324Z,4.00
2018-07-23T17:38:56.060Z,3.63
2018-07-23T17:41:25.700Z,3.30
2018-07-23T17:43:55.415Z,3.70
2018-07-23T17:46:25.079Z,4.30
2018-07-23T17:48:55.892Z,3.90
2018-07-23T17:51:25.518Z,3.80
2018-07-23T17:53:55.228Z,3.70
2018-07-23T17:56:24.892Z,3.20
2018-07-23T17:58:54.557Z,4.00
2018-07-23T18:01:24.308Z,3.40
2018-07-23T18:03:54.040Z,3.83
2018-07-23T18:06:23.718Z,4.07
2018-07-23T18:09:02.729Z,3.80
2018-07-23T18:11:32.639Z,3.83
2018-07-23T18:14:02.316Z,3.50
2018-07-23T18:16:32.078Z,3.57
2018-07-23T18:19:01.855Z,3.40
2018-07-23T18:21:31.835Z,4.27
2018-07-23T18:24:01.718Z,3.97
2018-07-23T18:26:31.561Z,3.87
2018-07-23T18:29:01.650Z,4.10
2018-07-23T18:31:32.237Z,4.13
2018-07-23T18:34:02.592Z,3.03
2018-07-23T18:36:32.959Z,4.30
2018-07-23T18:39:03.419Z,3.57
2018-07-23T18:41:33.770Z,4.40
2018-07-23T18:44:04.103Z,4.27
2018-07-23T18:46:34.529Z,3.73
2018-07-23T18:49:29.491Z,4.60
2018-07-23T18:51:59.926Z,3.80
2018-07-23T18:54:31.368Z,3.70
2018-07-23T18:57:03.976Z,3.97
2018-07-23T18:59:34.356Z,5.27
2018-07-23T19:02:07.467Z,5.20
2018-07-23T19:04:37.881Z,4.40
2018-07-23T19:07:09.109Z,5.20
2018-07-23T19:09:39.532Z,5.10
2018-07-23T19:12:10.829Z,4.90
2018-07-23T19:14:41.225Z,5.37
2018-07-23T19:17:13.141Z,5.10
2018-07-23T19:19:43.554Z,4.90
2018-07-23T19:22:14.081Z,4.73
2018-07-23T19:24:44.539Z,5.20
2018-07-23T19:27:15.047Z,4.87
2018-07-23T19:29:45.422Z,5.20
2018-07-23T19:32:15.821Z,5.00
2018-07-23T19:34:46.229Z,5.80
2018-07-23T19:37:16.677Z,5.07
2018-07-23T19:39:47.068Z,6.03
2018-07-23T19:42:17.523Z,5.87
2018-07-23T19:44:47.959Z,5.57
2018-07-23T19:47:18.354Z,5.53
2018-07-23T19:49:48.784Z,6.23
2018-07-23T19:52:19.228Z,5.53
2018-07-23T19:54:49.624Z,5.70
2018-07-23T19:57:20.066Z,5.13
2018-07-23T19:59:50.506Z,5.70
2018-07-23T20:02:20.902Z,4.90
2018-07-23T20:04:51.319Z,6.27
2018-07-23T20:07:21.778Z,5.50
2018-07-23T20:09:52.184Z,5.30
2018-07-23T20:12:22.681Z,5.20
2018-07-23T20:14:53.139Z,6.53
2018-07-23T20:17:23.597Z,6.13
2018-07-23T20:19:53.959Z,6.57
2018-07-23T20:22:25.351Z,5.60
2018-07-23T20:25:08.881Z,5.97
2018-07-23T20:27:39.320Z,6.43
2018-07-23T20:30:09.721Z,6.20
2018-07-23T20:32:40.093Z,6.57
2018-07-23T20:35:10.469Z,5.33
2018-07-23T20:37:40.910Z,5.77
2018-07-23T20:40:11.374Z,6.27
2018-07-23T20:42:41.732Z,6.70
2018-07-23T20:45:12.451Z,6.80
2018-07-23T20:47:42.848Z,5.97
2018-07-23T20:50:13.257Z,6.03
2018-07-23T20:52:43.687Z,6.53
2018-07-23T20:55:14.124Z,6.30
2018-07-23T20:57:44.519Z,5.87
2018-07-23T21:00:14.947Z,6.60
2018-07-23T21:02:45.329Z,7.13
2018-07-23T21:05:15.649Z,6.27
2018-07-23T21:07:45.985Z,6.60
2018-07-23T21:10:16.366Z,6.90
2018-07-23T21:12:46.644Z,5.90
2018-07-23T21:15:16.970Z,6.63
2018-07-23T21:17:47.264Z,7.07
2018-07-23T21:20:17.095Z,6.67
2018-07-23T21:22:46.923Z,6.30
2018-07-23T21:25:16.766Z,6.50
2018-07-23T21:27:46.616Z,7.50
2018-07-23T21:30:16.387Z,6.80
2018-07-23T21:32:46.072Z,5.87
2018-07-23T21:35:15.832Z,7.47
2018-07-23T21:37:45.483Z,7.07
2018-07-23T21:40:15.139Z,7.03
2018-07-23T21:42:44.112Z,5.80
2018-07-23T21:45:13.747Z,6.80
2018-07-23T21:47:43.418Z,5.90
2018-07-23T21:50:13.102Z,7.30
2018-07-23T21:52:42.728Z,5.80
2018-07-23T21:55:12.355Z,6.20
2018-07-23T21:57:42.070Z,5.80
2018-07-23T22:00:15.061Z,5.53
2018-07-23T22:02:44.694Z,6.37
2018-07-23T22:05:14.330Z,6.10
2018-07-23T22:07:43.960Z,5.40
2018-07-23T22:10:13.581Z,5.90
2018-07-23T22:12:43.220Z,6.00
2018-07-23T22:15:12.849Z,6.00
2018-07-23T22:17:42.480Z,6.57
2018-07-23T22:20:12.155Z,7.30
2018-07-23T22:22:41.769Z,6.17
2018-07-23T22:25:11.407Z,6.90
2018-07-23T22:27:41.047Z,6.33
2018-07-23T22:30:10.740Z,5.33
2018-07-23T22:32:40.425Z,6.40
2018-07-23T22:35:10.019Z,5.57
2018-07-23T22:37:39.661Z,5.80
2018-07-23T22:40:09.307Z,6.33
2018-07-23T22:42:38.989Z,6.43
2018-07-23T22:45:08.637Z,6.07
2018-07-23T22:47:38.263Z,5.83
2018-07-23T22:50:07.936Z,5.17
2018-07-23T22:52:37.665Z,5.87
2018-07-23T22:55:07.279Z,7.20
2018-07-23T22:57:36.964Z,5.17
2018-07-23T23:00:07.385Z,6.30
2018-07-23T23:02:37.013Z,5.27
2018-07-23T23:05:06.680Z,5.87
2018-07-23T23:07:36.284Z,5.17
2018-07-23T23:10:05.896Z,5.70
2018-07-23T23:12:35.499Z,5.70
2018-07-23T23:15:05.527Z,5.97
2018-07-23T23:17:35.124Z,6.13
2018-07-23T23:20:04.794Z,5.77
2018-07-23T23:22:34.476Z,6.27
2018-07-23T23:25:04.250Z,6.13
2018-07-23T23:27:33.936Z,6.27
2018-07-23T23:30:03.576Z,6.30
2018-07-23T23:32:33.240Z,6.20
2018-07-23T23:35:02.870Z,6.20
2018-07-23T23:37:32.515Z,6.47
2018-07-23T23:40:02.135Z,6.23
2018-07-23T23:42:31.732Z,5.90
2018-07-23T23:45:01.358Z,6.10
2018-07-23T23:47:30.978Z,6.00
2018-07-23T23:50:00.582Z,5.97
2018-07-23T23:52:30.175Z,7.07
2018-07-23T23:54:59.799Z,6.60
2018-07-23T23:57:29.428Z,6.47
2018-07-23T23:59:59.063Z,5.97
